Time;durP1;ratioP1;P1;durP2;ratioP2;P2;SDS_P1;SDS_P2;PMS_P1;PMS_P2;Temp;Humidity;BMP_temperature;BMP_pressure;BME280_temperature;BME280_humidity;BME280_pressure;Samples;Min_cycle;Max_cycle;Signal;HPM_P1;HPM_P2
2023/08/26 00:00:00;;;;;;;13.40;9.88;;;;;;;25.00;52.14;94976.09;4974276;28;20037;-81
2023/08/26 00:02:26;;;;;;;13.25;9.70;;;;;;;24.95;52.43;94972.09;5009505;28;20108;-80
2023/08/26 00:04:52;;;;;;;11.32;10.13;;;;;;;24.91;52.27;94971.63;5008581;28;20030;-82
2023/08/26 00:07:17;;;;;;;13.93;10.07;;;;;;;24.87;52.45;94971.16;4975114;28;20026;-81
2023/08/26 00:09:42;;;;;;;12.40;10.25;;;;;;;24.86;52.49;94970.41;4990788;28;20026;-81
2023/08/26 00:12:08;;;;;;;12.85;10.80;;;;;;;24.88;52.24;94969.88;4974850;28;20076;-80
2023/08/26 00:14:33;;;;;;;12.43;9.73;;;;;;;24.79;52.46;94971.00;4974805;28;20100;-80
2023/08/26 00:16:59;;;;;;;12.55;10.20;;;;;;;24.77;52.53;94961.56;4974541;28;20026;-80
2023/08/26 00:19:24;;;;;;;12.35;9.88;;;;;;;24.76;52.80;94969.25;4990894;28;20395;-80
2023/08/26 00:21:50;;;;;;;11.13;9.70;;;;;;;24.79;52.81;94973.81;4990503;28;20026;-81
2023/08/26 00:24:19;;;;;;;14.70;9.63;;;;;;;24.75;52.70;94975.41;4974879;28;20037;-81
2023/08/26 00:26:44;;;;;;;11.98;9.82;;;;;;;24.72;53.03;94976.50;5007798;28;20084;-81
2023/08/26 00:29:10;;;;;;;13.32;9.98;;;;;;;24.69;53.10;94974.72;4990878;28;20410;-81
2023/08/26 00:31:35;;;;;;;10.60;9.50;;;;;;;24.61;53.11;94961.28;4970894;28;20070;-80
2023/08/26 00:34:03;;;;;;;14.43;10.52;;;;;;;24.60;53.26;94962.56;4987344;28;20023;-81
2023/08/26 00:36:30;;;;;;;10.95;9.70;;;;;;;24.61;53.24;94975.31;4971440;28;20467;-81
2023/08/26 00:38:56;;;;;;;12.85;10.25;;;;;;;24.50;53.33;94969.84;4970740;28;20089;-80
2023/08/26 00:41:21;;;;;;;12.80;10.30;;;;;;;24.40;53.45;94968.66;4987396;28;20027;-80
2023/08/26 00:43:47;;;;;;;12.25;9.73;;;;;;;24.34;53.60;94968.72;4988168;28;20397;-80
2023/08/26 00:46:13;;;;;;;11.55;9.75;;;;;;;24.37;53.83;94972.50;4987205;28;20030;-81
2023/08/26 00:48:39;;;;;;;10.98;9.38;;;;;;;24.33;53.86;94961.56;4986775;28;20030;-81
2023/08/26 00:51:04;;;;;;;13.25;9.80;;;;;;;24.31;53.68;94961.31;4988848;28;20105;-81
2023/08/26 00:53:30;;;;;;;10.90;9.52;;;;;;;24.29;53.82;94960.34;4971198;28;20030;-81
2023/08/26 00:55:55;;;;;;;12.05;10.25;;;;;;;24.25;53.91;94968.28;4987168;28;20512;-80
2023/08/26 00:58:21;;;;;;;11.95;10.55;;;;;;;24.26;54.13;94964.97;4990570;28;20023;-81
2023/08/26 01:00:47;;;;;;;10.63;9.52;;;;;;;24.18;54.29;94961.22;4971288;28;20105;-81
2023/08/26 01:03:13;;;;;;;12.38;9.95;;;;;;;24.22;54.52;94972.91;4971295;28;20150;-81
2023/08/26 01:05:38;;;;;;;11.15;10.05;;;;;;;24.18;54.52;94968.88;4986829;28;20117;-82
2023/08/26 01:08:04;;;;;;;11.13;9.98;;;;;;;24.19;54.66;94964.78;4971246;28;20165;-80
2023/08/26 01:10:38;;;;;;;12.55;10.25;;;;;;;24.10;54.55;94961.03;4986885;28;20060;-80
2023/08/26 01:13:09;;;;;;;12.88;10.73;;;;;;;24.13;54.53;94975.31;4988148;28;20031;-80
2023/08/26 01:15:37;;;;;;;17.05;10.82;;;;;;;24.07;54.36;94972.53;4986926;28;20027;-81
2023/08/26 01:18:06;;;;;;;14.55;10.98;;;;;;;24.06;54.78;94971.03;4970072;28;20110;-82
2023/08/26 01:20:32;;;;;;;12.90;9.98;;;;;;;24.05;54.39;94975.13;4971349;28;20030;-81
2023/08/26 01:22:59;;;;;;;12.65;9.98;;;;;;;24.03;54.46;94972.84;4986300;28;20543;-81
2023/08/26 01:25:25;;;;;;;12.40;10.23;;;;;;;23.92;54.22;94960.97;4970372;28;20030;-80
2023/08/26 01:27:50;;;;;;;12.07;10.70;;;;;;;24.01;54.15;94977.47;4986437;28;20026;-81
2023/08/26 01:30:16;;;;;;;11.35;9.80;;;;;;;23.97;54.20;94969.34;4986083;28;20034;-80
2023/08/26 01:32:52;;;;;;;13.07;10.15;;;;;;;23.99;54.14;94982.84;4970161;28;20169;-81
2023/08/26 01:35:22;;;;;;;15.00;9.40;;;;;;;23.95;53.97;94987.97;4985727;28;20080;-81
2023/08/26 01:37:49;;;;;;;11.48;9.30;;;;;;;23.89;53.90;94974.00;4969796;28;20129;-80
2023/08/26 01:40:15;;;;;;;14.02;9.95;;;;;;;23.87;53.91;94979.38;4969476;28;20053;-81
2023/08/26 01:42:41;;;;;;;13.38;9.50;;;;;;;23.80;54.12;94963.13;4970051;28;20061;-81
2023/08/26 01:45:07;;;;;;;14.40;9.30;;;;;;;23.79;53.92;94970.75;4985957;28;20034;-81
2023/08/26 01:47:32;;;;;;;11.00;9.05;;;;;;;23.79;53.85;94967.94;4985849;28;20029;-80
2023/08/26 01:49:58;;;;;;;12.88;10.10;;;;;;;23.74;53.94;94973.59;4986083;28;20382;-80
2023/08/26 01:52:23;;;;;;;12.18;9.82;;;;;;;23.70;54.01;94973.16;4968898;28;20121;-81
2023/08/26 01:54:49;;;;;;;11.98;9.55;;;;;;;23.69;54.03;94966.78;4987727;28;20619;-81
2023/08/26 01:57:15;;;;;;;10.40;9.32;;;;;;;23.63;54.29;94974.50;4985486;28;20037;-81
2023/08/26 01:59:42;;;;;;;11.65;10.10;;;;;;;23.56;54.05;94969.38;4985895;28;20029;-81
2023/08/26 02:02:07;;;;;;;11.90;9.63;;;;;;;23.54;54.41;94960.75;4985567;28;20018;-81
2023/08/26 02:04:32;;;;;;;12.13;9.73;;;;;;;23.57;54.14;94963.28;4985626;28;20389;-80
2023/08/26 02:06:58;;;;;;;12.25;9.25;;;;;;;23.49;54.16;94961.53;4985584;28;20026;-81
2023/08/26 02:09:23;;;;;;;10.27;8.57;;;;;;;23.39;54.32;94955.50;4969064;28;20038;-82
2023/08/26 02:11:48;;;;;;;11.38;8.93;;;;;;;23.41;54.51;94966.22;4987062;28;20412;-81
2023/08/26 02:14:14;;;;;;;11.93;9.30;;;;;;;23.40;54.51;94962.66;4986679;28;20046;-81
2023/08/26 02:16:39;;;;;;;11.60;9.48;;;;;;;23.29;54.73;94955.06;4969685;28;20068;-82
2023/08/26 02:19:05;;;;;;;11.95;9.70;;;;;;;23.30;54.94;94953.78;4969010;28;20385;-81
2023/08/26 02:21:30;;;;;;;13.38;9.45;;;;;;;23.26;54.94;94947.69;4969434;28;20427;-81
2023/08/26 02:23:55;;;;;;;11.35;9.77;;;;;;;23.23;54.97;94951.53;4985301;28;20089;-81
2023/08/26 02:26:21;;;;;;;14.85;9.18;;;;;;;23.23;55.26;94953.59;4986765;28;20427;-80
2023/08/26 02:28:46;;;;;;;13.02;9.88;;;;;;;23.15;55.55;94944.19;4985231;28;20023;-80
2023/08/26 02:31:12;;;;;;;14.25;9.93;;;;;;;23.14;55.80;94948.28;4984925;28;20049;-81
2023/08/26 02:33:37;;;;;;;11.10;10.00;;;;;;;23.21;55.56;94950.53;4968784;28;20038;-80
2023/08/26 02:36:03;;;;;;;10.98;9.25;;;;;;;23.17;55.47;94948.03;4986403;28;20030;-81
2023/08/26 02:38:31;;;;;;;10.80;9.18;;;;;;;23.18;55.71;94945.97;4985324;28;20022;-81
2023/08/26 02:40:57;;;;;;;11.23;9.32;;;;;;;23.20;55.67;94949.00;4986228;28;20472;-80
2023/08/26 02:43:22;;;;;;;12.85;10.52;;;;;;;23.18;55.64;94954.38;4986650;28;20050;-81
2023/08/26 02:45:54;;;;;;;11.60;10.27;;;;;;;23.13;55.85;94947.53;4986439;28;20030;-80
2023/08/26 02:48:24;;;;;;;11.47;9.87;;;;;;;23.16;55.78;94951.31;4971703;28;20037;-81
2023/08/26 02:50:56;;;;;;;13.45;9.75;;;;;;;23.13;55.96;94950.31;4986257;28;20296;-81
2023/08/26 02:53:24;;;;;;;13.57;9.85;;;;;;;23.14;55.96;94951.09;4985564;28;20531;-81
2023/08/26 02:55:49;;;;;;;11.63;10.07;;;;;;;23.09;55.94;94949.06;4985768;28;20110;-81
2023/08/26 02:58:14;;;;;;;12.38;9.20;;;;;;;23.07;56.23;94944.00;4985060;28;20544;-81
2023/08/26 03:00:40;;;;;;;13.02;10.15;;;;;;;23.08;56.11;94951.13;4986711;28;20092;-81
2023/08/26 03:03:05;;;;;;;10.75;9.40;;;;;;;23.04;56.38;94945.78;4985054;28;20524;-81
2023/08/26 03:05:31;;;;;;;12.15;9.43;;;;;;;23.03;56.12;94946.31;4968533;28;20034;-81
2023/08/26 03:07:56;;;;;;;12.40;9.20;;;;;;;23.02;56.16;94951.16;4986753;28;20069;-81
2023/08/26 03:10:22;;;;;;;12.50;10.13;;;;;;;23.01;56.19;94952.44;4984331;28;20469;-81
2023/08/26 03:12:47;;;;;;;13.95;9.80;;;;;;;22.99;56.15;94957.03;4984747;28;20031;-80
2023/08/26 03:15:13;;;;;;;14.07;10.38;;;;;;;22.95;56.33;94962.16;4968519;28;20033;-80
2023/08/26 03:17:38;;;;;;;13.00;10.45;;;;;;;22.94;56.28;94955.81;4985043;28;20120;-80
2023/08/26 03:20:05;;;;;;;18.42;10.60;;;;;;;22.88;56.44;94954.28;4985740;28;20497;-80
2023/08/26 03:22:30;;;;;;;11.45;10.20;;;;;;;22.85;56.44;94958.09;4985050;28;20034;-81
2023/08/26 03:24:56;;;;;;;13.70;10.45;;;;;;;22.85;56.32;94955.31;4985958;28;20481;-80
2023/08/26 03:27:21;;;;;;;12.88;10.25;;;;;;;22.88;56.33;94969.09;4984544;28;20034;-80
2023/08/26 03:29:46;;;;;;;12.40;10.38;;;;;;;22.79;56.43;94961.69;4984805;28;20033;-80
2023/08/26 03:32:12;;;;;;;13.98;10.65;;;;;;;22.76;56.60;94962.72;4967940;28;20485;-80
2023/08/26 03:34:37;;;;;;;11.15;9.88;;;;;;;22.75;56.51;94966.03;4968725;28;20061;-80
2023/08/26 03:37:03;;;;;;;12.23;10.85;;;;;;;22.75;56.54;94975.22;4984592;28;20061;-80
2023/08/26 03:39:29;;;;;;;16.23;10.80;;;;;;;22.71;56.67;94974.75;4969456;28;20038;-80
2023/08/26 03:41:54;;;;;;;13.25;10.43;;;;;;;22.68;57.05;94984.16;4984407;28;20179;-82
2023/08/26 03:44:20;;;;;;;13.18;10.52;;;;;;;22.67;57.06;94981.88;4968372;28;20034;-80
2023/08/26 03:46:45;;;;;;;14.15;11.02;;;;;;;22.60;57.01;94979.63;4984350;28;20812;-81
2023/08/26 03:49:11;;;;;;;16.25;10.68;;;;;;;22.64;57.17;94980.09;4967800;28;20122;-81
2023/08/26 03:51:36;;;;;;;14.80;10.68;;;;;;;22.64;57.00;94988.50;4984231;28;20493;-81
2023/08/26 03:54:02;;;;;;;13.68;10.75;;;;;;;22.52;57.11;94976.59;4984023;28;20081;-81
2023/08/26 03:56:28;;;;;;;15.40;11.15;;;;;;;22.60;57.32;94985.22;4968612;28;20073;-81
2023/08/26 03:58:56;;;;;;;12.32;10.93;;;;;;;22.58;57.17;94982.16;4967988;28;20413;-81
2023/08/26 04:01:22;;;;;;;14.27;11.10;;;;;;;22.62;57.33;94993.88;4986880;28;20084;-79
2023/08/26 04:03:50;;;;;;;13.80;11.02;;;;;;;22.58;57.46;94984.97;4971519;28;20026;-81
2023/08/26 04:06:17;;;;;;;16.70;11.40;;;;;;;22.56;57.54;94981.94;4987567;28;20065;-81
2023/08/26 04:08:43;;;;;;;15.30;10.20;;;;;;;22.56;57.44;94984.72;4972146;28;20037;-80
2023/08/26 04:11:09;;;;;;;11.77;10.45;;;;;;;22.50;57.51;94982.72;4971419;28;20026;-81
2023/08/26 04:13:34;;;;;;;16.35;11.80;;;;;;;22.51;57.65;94987.03;4988621;28;20512;-79
2023/08/26 04:16:02;;;;;;;18.10;10.65;;;;;;;22.55;57.53;94991.63;4987609;28;20113;-81
2023/08/26 04:18:28;;;;;;;12.75;11.05;;;;;;;22.54;57.67;94996.47;4989747;28;20084;-79
2023/08/26 04:20:53;;;;;;;16.23;11.13;;;;;;;22.53;57.73;94995.66;4987525;28;20110;-80
2023/08/26 04:23:19;;;;;;;18.35;11.35;;;;;;;22.48;57.85;94992.88;4988100;28;20022;-80
2023/08/26 04:25:44;;;;;;;12.65;10.63;;;;;;;22.49;57.89;94995.19;4987674;28;20034;-80
2023/08/26 04:28:11;;;;;;;14.90;10.88;;;;;;;22.48;57.91;94999.28;4988059;28;20027;-79
2023/08/26 04:30:37;;;;;;;14.68;10.75;;;;;;;22.48;57.98;94992.88;4987833;28;20030;-80
2023/08/26 04:33:06;;;;;;;17.83;10.95;;;;;;;22.55;58.21;95002.81;4986635;28;20512;-81
2023/08/26 04:35:34;;;;;;;14.23;10.73;;;;;;;22.57;57.77;95006.63;4987733;28;20045;-80
2023/08/26 04:38:00;;;;;;;14.98;10.90;;;;;;;22.57;57.97;94994.66;4986819;28;20036;-80
2023/08/26 04:40:25;;;;;;;19.33;11.07;;;;;;;22.59;58.17;95004.06;4989154;28;20026;-80
2023/08/26 04:42:53;;;;;;;13.88;11.60;;;;;;;22.60;58.12;95000.00;4988689;28;20097;-79
2023/08/26 04:45:19;;;;;;;18.42;11.48;;;;;;;22.57;57.99;94994.66;4988860;28;20031;-80
2023/08/26 04:47:44;;;;;;;15.20;11.73;;;;;;;22.65;58.06;94998.44;4987844;28;20077;-80
2023/08/26 04:50:11;;;;;;;19.17;12.38;;;;;;;22.66;58.15;95011.19;4987027;28;20116;-81
2023/08/26 04:52:38;;;;;;;17.05;11.23;;;;;;;22.67;57.84;95013.47;4971552;28;20046;-81
2023/08/26 04:55:04;;;;;;;20.33;12.43;;;;;;;22.70;58.08;95006.81;4970885;28;20493;-80
2023/08/26 04:57:29;;;;;;;17.27;12.32;;;;;;;22.74;57.66;95012.91;4987444;28;20041;-81
2023/08/26 04:59:55;;;;;;;14.68;12.15;;;;;;;22.74;57.76;95001.72;4986835;28;20101;-80
2023/08/26 05:02:20;;;;;;;20.83;12.70;;;;;;;22.76;57.42;95004.75;4986744;28;20034;-80
2023/08/26 05:04:45;;;;;;;16.20;12.48;;;;;;;22.79;57.31;95008.56;4987191;28;20036;-81
2023/08/26 05:07:11;;;;;;;16.55;11.40;;;;;;;22.83;57.21;95011.88;4987867;28;20026;-81
2023/08/26 05:09:36;;;;;;;17.10;12.63;;;;;;;22.87;57.28;95000.38;4971093;28;20033;-80
2023/08/26 05:12:03;;;;;;;15.52;12.07;;;;;;;22.91;57.21;95004.47;4986235;28;20033;-81
2023/08/26 05:14:28;;;;;;;15.23;12.27;;;;;;;22.94;56.87;95003.44;4986571;28;20026;-80
2023/08/26 05:16:54;;;;;;;14.27;12.10;;;;;;;23.01;56.92;95011.31;4988239;28;20026;-81
2023/08/26 05:19:19;;;;;;;15.55;12.43;;;;;;;23.02;56.69;95012.06;4986531;28;20049;-81
2023/08/26 05:21:44;;;;;;;16.48;12.00;;;;;;;23.03;56.95;95008.75;4988334;28;20046;-81
2023/08/26 05:24:10;;;;;;;15.43;11.63;;;;;;;23.05;56.85;95011.81;4987470;28;20048;-79
2023/08/26 05:26:37;;;;;;;16.17;11.88;;;;;;;23.08;56.94;95017.66;4988239;28;20038;-81
2023/08/26 05:29:04;;;;;;;17.65;11.75;;;;;;;23.09;56.64;95011.50;4986126;28;20030;-81
2023/08/26 05:31:31;;;;;;;14.55;11.65;;;;;;;23.10;56.73;95015.84;4986695;28;20041;-81
2023/08/26 05:33:56;;;;;;;15.95;10.95;;;;;;;23.10;56.37;95013.03;4986199;28;20037;-81
2023/08/26 05:36:22;;;;;;;18.48;11.85;;;;;;;23.12;56.52;95016.09;4986658;28;20109;-80
2023/08/26 05:38:47;;;;;;;15.38;11.35;;;;;;;23.14;56.31;95007.16;4986687;28;20058;-80
2023/08/26 05:41:13;;;;;;;15.20;11.90;;;;;;;23.16;56.13;95010.19;4986030;28;20026;-80
2023/08/26 05:43:38;;;;;;;15.95;11.40;;;;;;;23.15;56.36;95012.25;4986465;28;20033;-80
2023/08/26 05:46:03;;;;;;;18.83;11.82;;;;;;;23.13;56.40;95009.22;4986910;28;20030;-80
2023/08/26 05:48:29;;;;;;;14.98;11.23;;;;;;;23.12;56.30;95002.09;4987969;28;20034;-79
2023/08/26 05:50:58;;;;;;;16.50;11.52;;;;;;;23.22;56.59;95017.28;4987241;28;20084;-81
2023/08/26 05:53:23;;;;;;;17.20;11.60;;;;;;;23.26;56.28;95015.00;4987852;28;20034;-82
2023/08/26 05:55:49;;;;;;;16.83;11.27;;;;;;;23.27;56.15;95010.91;4985953;28;20026;-81
2023/08/26 05:58:14;;;;;;;15.60;11.10;;;;;;;23.24;56.43;95011.94;4969780;28;20026;-81
2023/08/26 06:00:40;;;;;;;15.23;12.13;;;;;;;23.31;56.29;95017.00;4987533;28;20030;-81
2023/08/26 06:03:05;;;;;;;15.90;13.65;;;;;;;23.36;56.21;95018.25;4985565;28;20085;-81
2023/08/26 06:05:31;;;;;;;14.38;12.07;;;;;;;23.46;55.72;95025.06;4969860;28;20041;-81
2023/08/26 06:07:56;;;;;;;16.77;11.70;;;;;;;23.47;55.73;95009.75;4987126;28;20455;-80
2023/08/26 06:10:23;;;;;;;13.27;11.75;;;;;;;23.56;55.46;95017.09;4985903;28;20019;-81
2023/08/26 06:12:48;;;;;;;16.25;12.02;;;;;;;23.64;55.19;95018.09;4985524;28;20076;-81
2023/08/26 06:15:14;;;;;;;13.30;11.90;;;;;;;23.58;55.31;95012.50;4985652;28;20026;-80
2023/08/26 06:17:41;;;;;;;16.02;11.63;;;;;;;23.56;55.65;95012.22;4986964;28;20031;-80
2023/08/26 06:20:08;;;;;;;16.10;12.38;;;;;;;23.60;55.69;95020.38;4985467;28;20109;-81
2023/08/26 06:22:33;;;;;;;16.38;12.88;;;;;;;23.67;55.36;95010.66;4985667;28;20026;-81
2023/08/26 06:24:59;;;;;;;16.70;12.85;;;;;;;23.69;55.28;95019.34;4986260;28;20027;-81
2023/08/26 06:27:27;;;;;;;16.08;12.52;;;;;;;23.68;55.49;95015.75;4985510;28;20559;-82
2023/08/26 06:29:53;;;;;;;13.60;12.00;;;;;;;23.71;55.69;95020.31;4986885;28;20076;-81
2023/08/26 06:32:20;;;;;;;14.27;11.32;;;;;;;23.74;55.21;95024.91;4985817;28;20050;-82
2023/08/26 06:34:45;;;;;;;14.25;11.40;;;;;;;23.78;55.07;95028.19;4985377;28;20469;-81
2023/08/26 06:37:11;;;;;;;15.85;11.40;;;;;;;23.87;54.81;95026.34;4985543;28;20435;-82
2023/08/26 06:39:36;;;;;;;16.15;12.50;;;;;;;23.99;54.26;95024.97;4985435;28;20026;-82
2023/08/26 06:42:02;;;;;;;16.45;12.90;;;;;;;24.08;54.24;95033.03;4984693;28;20023;-81
2023/08/26 06:44:27;;;;;;;13.20;11.40;;;;;;;24.05;54.44;95034.09;4985000;28;20030;-82
2023/08/26 06:46:52;;;;;;;16.05;11.45;;;;;;;24.11;54.28;95041.19;4984696;28;20030;-81
2023/08/26 06:49:18;;;;;;;14.48;10.13;;;;;;;24.19;53.68;95034.97;4984998;28;20019;-81
2023/08/26 06:51:44;;;;;;;13.95;10.88;;;;;;;24.21;53.71;95035.25;4984900;28;20026;-80
2023/08/26 06:54:09;;;;;;;14.43;10.13;;;;;;;24.34;53.31;95030.53;4985335;28;20030;-81
2023/08/26 06:56:35;;;;;;;16.17;10.63;;;;;;;24.44;52.88;95039.38;4986136;28;20033;-81
2023/08/26 06:59:02;;;;;;;13.73;10.55;;;;;;;24.53;52.61;95036.19;4984778;28;20073;-81
2023/08/26 07:01:27;;;;;;;10.98;9.23;;;;;;;24.62;52.04;95037.91;4984793;28;20049;-81
2023/08/26 07:03:53;;;;;;;15.07;10.35;;;;;;;24.72;52.09;95029.88;4984850;28;20394;-80
2023/08/26 07:06:18;;;;;;;14.45;10.40;;;;;;;24.79;51.65;95035.66;4986703;28;20027;-82
2023/08/26 07:08:44;;;;;;;12.57;9.88;;;;;;;24.94;51.43;95038.03;4984559;28;20102;-81
2023/08/26 07:11:09;;;;;;;12.45;9.80;;;;;;;25.03;51.07;95037.69;4986502;28;20053;-81
2023/08/26 07:13:35;;;;;;;14.90;10.63;;;;;;;25.13;50.63;95030.44;4986102;28;20431;-81
2023/08/26 07:16:00;;;;;;;12.20;9.70;;;;;;;25.27;50.13;95034.06;4968687;28;20481;-81
2023/08/26 07:18:26;;;;;;;14.57;8.77;;;;;;;25.34;50.09;95029.88;4986427;28;20037;-81
2023/08/26 07:20:51;;;;;;;17.08;10.43;;;;;;;25.41;49.99;95030.06;4986023;28;20540;-81
2023/08/26 07:23:16;;;;;;;15.77;8.77;;;;;;;25.54;49.78;95020.16;4986427;28;20443;-81
2023/08/26 07:25:42;;;;;;;10.73;9.07;;;;;;;25.68;49.06;95022.47;4985810;28;20037;-82
2023/08/26 07:28:07;;;;;;;10.75;9.65;;;;;;;25.74;49.02;95024.47;4985289;28;20037;-81
2023/08/26 07:30:33;;;;;;;10.25;9.10;;;;;;;25.85;48.39;95030.69;4985668;28;20428;-81
2023/08/26 07:32:58;;;;;;;13.70;9.70;;;;;;;25.93;48.43;95025.97;5003906;28;20046;-81
2023/08/26 07:35:24;;;;;;;12.13;9.82;;;;;;;26.04;48.22;95022.22;5005514;28;20481;-81
2023/08/26 07:37:49;;;;;;;10.60;9.05;;;;;;;26.23;47.06;95021.38;5008744;28;20034;-81
2023/08/26 07:40:15;;;;;;;10.05;8.35;;;;;;;26.37;46.81;95025.72;5009664;28;20101;-81
2023/08/26 07:42:42;;;;;;;9.65;8.52;;;;;;;26.44;47.03;95019.50;5008903;28;20132;-81
2023/08/26 07:45:08;;;;;;;13.70;9.60;;;;;;;26.51;46.36;95021.66;4991985;28;20037;-81
2023/08/26 07:47:34;;;;;;;12.98;8.35;;;;;;;26.59;46.51;95022.53;4991347;28;20415;-81
2023/08/26 07:49:59;;;;;;;10.38;8.60;;;;;;;26.74;46.23;95024.81;5010077;28;20095;-81
2023/08/26 07:52:24;;;;;;;14.30;8.55;;;;;;;26.86;45.70;95011.25;5009243;28;20408;-81
2023/08/26 07:54:51;;;;;;;11.48;9.05;;;;;;;26.99;45.36;95011.22;5009001;28;20033;-81
2023/08/26 07:57:16;;;;;;;12.40;8.85;;;;;;;27.08;45.19;95010.81;5009064;28;20108;-81
2023/08/26 07:59:41;;;;;;;13.73;8.00;;;;;;;27.20;44.67;95008.53;4990854;28;20112;-81
2023/08/26 08:02:07;;;;;;;10.50;8.20;;;;;;;27.31;44.01;95011.09;4991576;28;20053;-81
2023/08/26 08:04:32;;;;;;;14.93;8.20;;;;;;;27.38;44.32;95009.66;5008443;28;20463;-81
2023/08/26 08:06:58;;;;;;;11.93;7.72;;;;;;;27.54;42.99;95014.19;5009311;28;20076;-81
2023/08/26 08:09:23;;;;;;;12.70;8.30;;;;;;;27.51;43.26;94992.69;4991125;28;20399;-81
2023/08/26 08:11:48;;;;;;;14.25;8.05;;;;;;;27.70;43.20;95001.00;5008812;28;20546;-81
2023/08/26 08:14:14;;;;;;;10.48;8.35;;;;;;;27.91;43.14;94998.19;4991117;28;20087;-81
2023/08/26 08:16:39;;;;;;;14.02;8.40;;;;;;;27.99;42.69;94996.22;5008505;28;20446;-81
2023/08/26 08:19:05;;;;;;;10.88;8.35;;;;;;;28.13;42.81;94996.88;5008933;28;20038;-81
2023/08/26 08:21:30;;;;;;;12.02;7.72;;;;;;;28.33;42.21;94992.53;5008595;28;20041;-80
2023/08/26 08:23:55;;;;;;;9.70;8.00;;;;;;;28.51;41.92;94997.22;5008805;28;20034;-81
2023/08/26 08:26:21;;;;;;;11.55;7.43;;;;;;;28.63;41.51;94995.59;5008496;28;20026;-81
2023/08/26 08:28:46;;;;;;;10.95;7.50;;;;;;;28.74;41.17;94986.78;5008689;28;20147;-81
2023/08/26 08:31:12;;;;;;;10.40;8.32;;;;;;;28.96;40.27;94996.75;5008231;28;20045;-81
2023/08/26 08:33:37;;;;;;;9.02;7.18;;;;;;;29.13;39.83;94992.66;4990642;28;20026;-80
2023/08/26 08:36:03;;;;;;;11.18;7.47;;;;;;;29.24;39.49;94992.31;4990932;28;20061;-81
2023/08/26 08:38:29;;;;;;;9.25;7.22;;;;;;;29.31;39.42;94988.78;4990760;28;20400;-81
2023/08/26 08:40:54;;;;;;;11.73;7.70;;;;;;;29.44;39.47;94990.72;5008306;28;20026;-81
2023/08/26 08:43:21;;;;;;;10.63;8.02;;;;;;;29.62;39.14;94993.25;5007952;28;20084;-81
2023/08/26 08:45:46;;;;;;;9.13;7.00;;;;;;;29.75;38.02;94983.06;4990642;28;20037;-81
2023/08/26 08:48:12;;;;;;;9.93;7.10;;;;;;;29.94;38.08;94986.31;4990023;28;20083;-82
2023/08/26 08:50:37;;;;;;;10.80;7.25;;;;;;;30.15;37.44;94980.47;5008001;28;20057;-81
2023/08/26 08:53:03;;;;;;;10.13;6.53;;;;;;;30.31;37.36;94984.84;5007947;28;20551;-81
2023/08/26 08:55:29;;;;;;;9.38;6.82;;;;;;;30.56;36.53;94985.00;4990244;28;20090;-82
2023/08/26 08:57:56;;;;;;;9.80;7.28;;;;;;;30.81;36.06;94979.50;4990398;28;20026;-81
2023/08/26 09:00:23;;;;;;;11.48;7.32;;;;;;;31.08;35.96;94974.13;4990158;28;20030;-81
2023/08/26 09:02:51;;;;;;;11.43;7.10;;;;;;;31.31;35.65;94985.41;4974052;28;20060;-81
2023/08/26 09:05:17;;;;;;;9.07;6.57;;;;;;;31.50;34.68;94967.16;4990113;28;20037;-82
2023/08/26 09:07:43;;;;;;;9.82;6.85;;;;;;;31.77;33.73;94970.94;5008456;28;20018;-82
2023/08/26 09:10:11;;;;;;;8.60;6.55;;;;;;;31.96;34.00;94970.47;4990380;28;20038;-82
2023/08/26 09:12:37;;;;;;;7.90;6.80;;;;;;;32.18;33.74;94971.66;5008303;28;20025;-79
2023/08/26 09:15:04;;;;;;;9.73;6.88;;;;;;;32.37;33.07;94951.97;4990617;28;20032;-82
2023/08/26 09:17:30;;;;;;;10.85;7.65;;;;;;;32.62;32.98;94959.69;5007774;28;20018;-82
2023/08/26 09:19:59;;;;;;;10.57;6.78;;;;;;;32.94;31.62;94967.38;4990223;28;20449;-81
2023/08/26 09:22:26;;;;;;;7.53;6.40;;;;;;;33.16;31.85;94966.34;4989957;28;20026;-81
2023/08/26 09:24:55;;;;;;;10.35;7.55;;;;;;;33.38;31.03;94960.94;4990282;28;20132;-82
2023/08/26 09:27:20;;;;;;;7.90;7.10;;;;;;;33.57;30.35;94958.25;5007786;28;20304;-82
2023/08/26 09:29:46;;;;;;;8.93;7.30;;;;;;;33.80;30.49;94952.22;4973797;28;20511;-82
2023/08/26 09:32:12;;;;;;;8.55;6.95;;;;;;;33.96;29.95;94956.38;5007268;28;20042;-82
2023/08/26 09:34:37;;;;;;;9.48;7.13;;;;;;;34.18;30.16;94956.59;4989634;28;20079;-81
2023/08/26 09:37:03;;;;;;;11.40;7.15;;;;;;;34.37;28.92;94956.69;4990017;28;20044;-81
2023/08/26 09:39:29;;;;;;;8.65;7.75;;;;;;;34.61;28.92;94952.09;4989639;28;20021;-81
2023/08/26 09:41:55;;;;;;;8.57;7.07;;;;;;;34.82;27.54;94945.81;5007807;28;20022;-81
2023/08/26 09:44:21;;;;;;;8.80;6.57;;;;;;;35.03;28.32;94943.13;4989886;28;20022;-81
2023/08/26 09:46:47;;;;;;;7.50;6.80;;;;;;;35.21;27.49;94940.88;4975406;28;20068;-82
2023/08/26 09:49:17;;;;;;;7.60;6.72;;;;;;;35.38;28.03;94928.53;4999761;28;20085;-82
2023/08/26 09:51:47;;;;;;;7.60;6.65;;;;;;;35.63;27.40;94934.66;4994785;28;20053;-82
2023/08/26 09:54:17;;;;;;;7.18;6.47;;;;;;;35.87;27.19;94929.19;4990138;28;20044;-81
2023/08/26 09:56:44;;;;;;;9.50;6.57;;;;;;;36.08;26.67;94919.94;4989307;28;20025;-81
2023/08/26 09:59:10;;;;;;;8.40;6.65;;;;;;;36.28;25.94;94926.31;4988967;28;20044;-82
2023/08/26 10:01:38;;;;;;;8.27;6.38;;;;;;;36.45;26.23;94920.38;4989488;28;20029;-81
2023/08/26 10:04:08;;;;;;;7.03;6.38;;;;;;;36.75;25.63;94926.66;4973538;28;20440;-82
2023/08/26 10:06:39;;;;;;;8.63;6.60;;;;;;;36.90;24.98;94926.25;4989732;28;20030;-81
2023/08/26 10:09:12;;;;;;;6.95;6.10;;;;;;;37.04;24.31;94921.47;5006873;28;20025;-82
2023/08/26 10:11:40;;;;;;;10.75;6.57;;;;;;;37.22;25.04;94924.78;4989433;28;20572;-81
2023/08/26 10:14:10;;;;;;;7.15;6.47;;;;;;;37.37;24.78;94917.88;4972419;28;20093;-81
2023/08/26 10:16:36;;;;;;;7.78;6.75;;;;;;;37.58;24.29;94914.97;4989809;28;20053;-82
2023/08/26 10:19:03;;;;;;;9.57;6.70;;;;;;;37.69;24.17;94911.38;5006787;28;20064;-81
2023/08/26 10:21:29;;;;;;;7.97;6.70;;;;;;;37.79;23.96;94902.63;4989470;28;20030;-82
2023/08/26 10:23:55;;;;;;;8.48;6.20;;;;;;;38.00;22.75;94908.28;4988770;28;20044;-81
2023/08/26 10:26:20;;;;;;;7.32;6.30;;;;;;;38.09;22.72;94903.06;4972515;28;20092;-81
2023/08/26 10:28:47;;;;;;;6.93;5.95;;;;;;;38.32;22.52;94910.94;5006936;28;20022;-81
2023/08/26 10:31:14;;;;;;;7.15;5.55;;;;;;;38.53;22.51;94902.16;4988245;28;20125;-81
2023/08/26 10:34:08;;;;;;;6.50;5.90;;;;;;;38.76;22.32;94910.00;5006700;28;20033;-82
2023/08/26 10:36:37;;;;;;;12.63;7.80;;;;;;;38.95;22.26;94906.09;5006565;28;20857;-82
2023/08/26 10:39:04;;;;;;;9.50;6.28;;;;;;;39.01;21.76;94897.84;4988724;28;20080;-81
2023/08/26 10:41:30;;;;;;;6.22;5.68;;;;;;;39.13;21.96;94898.53;5006451;28;20034;-81
2023/08/26 10:43:58;;;;;;;7.38;6.22;;;;;;;39.38;21.92;94897.06;4988301;28;20021;-81
2023/08/26 10:46:51;;;;;;;7.65;5.88;;;;;;;39.55;20.72;94894.47;5006477;28;20034;-79
2023/08/26 10:49:22;;;;;;;5.90;5.38;;;;;;;39.78;21.34;94904.34;5005688;28;20539;-81
2023/08/26 10:51:48;;;;;;;6.60;5.90;;;;;;;39.91;21.00;94894.25;4989142;28;20036;-81
2023/08/26 10:54:13;;;;;;;6.15;5.50;;;;;;;40.04;20.67;94887.78;5005813;28;20034;-79
2023/08/26 10:56:40;;;;;;;6.57;5.25;;;;;;;40.20;20.58;94882.16;4988297;28;20033;-80
2023/08/26 10:59:06;;;;;;;7.82;5.80;;;;;;;40.46;19.73;94888.56;4988442;28;20026;-82
2023/08/26 11:01:35;;;;;;;5.95;5.32;;;;;;;40.57;19.64;94884.84;5005784;28;20427;-82
2023/08/26 11:04:01;;;;;;;9.82;6.00;;;;;;;40.87;18.78;94882.75;5006288;28;20018;-80
2023/08/26 11:06:26;;;;;;;6.95;5.50;;;;;;;41.22;18.85;94885.25;4988067;28;20056;-82
2023/08/26 11:08:56;;;;;;;6.25;5.32;;;;;;;41.55;18.93;94875.31;5006051;28;20101;-81
2023/08/26 11:11:23;;;;;;;7.60;6.57;;;;;;;42.02;18.30;94880.38;4989296;28;20607;-81
2023/08/26 11:13:48;;;;;;;8.15;6.53;;;;;;;42.44;18.14;94870.03;5009999;28;20557;-80
2023/08/26 11:16:15;;;;;;;6.63;5.50;;;;;;;42.99;17.79;94871.66;5010124;28;20026;-80
2023/08/26 11:18:42;;;;;;;6.15;5.55;;;;;;;43.56;16.61;94874.03;4992235;28;20145;-80